Date,TemperatureHighF,TemperatureAvgF,TemperatureLowF,DewpointHighF,DewpointAvgF,DewpointLowF,HumidityHigh,HumidityAvg,HumidityLow,PressureMaxIn,PressureMinIn,WindSpeedMaxMPH,WindSpeedAvgMPH,GustSpeedMaxMPH,PrecipitationSumIn
2013-7-1,83,75,69,74,70,67,95,85,68,30.08,30.02,11,1,12,0.06
2013-7-2,81,73,68,74,70,66,96,88,73,30.07,29.98,18,1,18,0.14
2013-7-3,82,73,68,74,69,67,96,87,71,30.05,29.98,18,2,18,0.21
2013-7-4,83,75,69,73,69,66,94,82,66,30.08,30.00,15,2,15,0.01
2013-7-5,84,76,68,74,69,65,94,82,66,30.08,30.00,11,1,11,0.02
2013-7-6,84,75,68,73,70,67,95,85,67,30.07,30.00,9,1,9,0.02
2013-7-7,84,76,68,73,69,65,92,81,64,30.04,29.93,15,1,15,0.00
2013-7-8,88,77,69,75,71,67,94,82,61,30.07,29.95,19,3,19,0.02
2013-7-9,86,77,72,74,71,69,93,81,63,30.21,30.03,27,6,27,0.05
2013-7-10,83,76,72,74,71,68,94,85,67,30.21,30.15,24,4,24,0.11
2013-7-11,83,74,70,74,70,67,94,85,67,30.18,30.08,23,4,23,0.17
2013-7-12,80,73,68,73,70,66,95,90,76,30.13,30.04,19,2,19,0.40
2013-7-13,84,75,69,73,69,66,94,83,63,30.07,29.99,15,2,15,0.02
2013-7-14,86,76,69,72,68,65,93,79,58,30.03,29.94,20,3,20,0.11
2013-7-15,85,75,69,73,69,66,93,82,64,30.05,29.96,22,4,22,0.02
2013-7-16,84,76,70,72,70,67,91,81,67,30.04,29.96,15,3,15,0.00
2013-7-17,87,76,70,73,69,67,93,81,57,30.06,29.98,20,4,20,0.05
2013-7-18,83,74,69,74,69,66,93,85,66,30.10,30.01,21,3,21,0.11
2013-7-19,84,74,68,75,71,66,97,89,71,30.12,30.02,21,2,21,0.30
2013-7-20,85,76,69,73,70,67,95,84,64,30.12,30.04,18,2,18,0.20
2013-7-21,83,74,69,74,70,67,95,87,68,30.08,29.98,15,2,15,0.22
2013-7-22,79,75,68,72,69,65,93,83,77,30.06,30.01,9,2,9,0.00
2013-7-23,79,78,76,72,71,70,82,79,77,30.05,30.04,3,2,9,0.00
2013-7-24,79,78,75,72,71,70,83,79,77,30.05,30.04,2,2,9,0.00
2013-7-25,79,78,76,72,71,70,82,79,77,30.05,30.04,2,2,9,0.00
2013-7-26,87,78,72,72,70,68,90,77,59,30.08,30.02,19,3,19,0.00
2013-7-27,84,75,70,73,70,67,95,85,60,30.09,30.01,20,3,20,0.14
2013-7-28,82,75,71,75,70,65,94,85,70,30.07,29.98,19,2,19,0.09
2013-7-29,79,75,73,77,74,72,97,95,90,30.02,29.92,16,2,17,0.68
2013-7-30,86,77,73,79,74,71,97,92,74,30.17,29.85,23,3,23,1.22
2013-7-31,85,77,73,76,73,70,96,87,73,30.17,30.11,22,4,22,0.05